Terminal Aerodrome Forecast
Issued by NWS Bismarck, ND

Home | Current Version | Previous Version | Graphics & Text | Print | Product List | Glossary On
Versions: 1 2 3 4 5 6 7 8 9 10 11 12 13 14 15 16 17
631
FTUS43 KBIS 201730
TAFISN
TAF
KISN 201730Z 2018/2118 14007KT P6SM SCT090 BKN250
     FM201900 10011KT P6SM VCTS FEW090CB SCT200
     FM202200 07015KT P6SM VCTS FEW080CB SCT200
     FM210200 08013KT P6SM FEW100 FEW250
     FM211100 08005KT P6SM FEW090 SCT200
     FM211600 34006KT P6SM FEW080 SCT200=

USA.gov is the U.S. government's official web portal to all federal, state and local government web resources and services.